Relevés horaires Elsenborn (Belgique)


Relevés horaires à Elsenborn - Lundi 20 Avr. 2026
Heure UTC1 Température [°C] Vent [km/h] Hum. [%] Pres.4 [hPa] Visi. [Km] Nébu. [octa] Préc.5 [mm] Cond.
2m. Res. Ros. Dir.2 Vit. Moy. Raf.3
23:00 -1.4 -1.4 -2.6 NNO 1.9 -- 3.7 92 1023.3(0.3/3h) >70 -- -- --
22:00 -1.1 -1.1 -2.2 NNO 1.9 -- 1.9 92 1023(0.4/3h) >70 -- -- --
21:00 -0.7 -0.7 -2.1 NNO 0.0 -- 7.4 90 1022.7(0.6/3h) >70 -- -- --
20:00 0.6 0.6 -1.8 NNO 1.9 -- 3.7 84 1022.3(0.5/3h) >70 -- -- --
19:00 3.6 3.6 -1.9 NNO 1.9 -- 7.4 67 1021.2(0.1/3h) >70 -- -- --
18:00 6.5 6.5 -2.3 N 3.7 -- 14.8 53 1020.2(0.0/3h) >70 -- -- --
17:00 6.8 6.8 -3.1 N 3.7 -- 9.3 49 1020.2(0.0/3h) >70 -- -- --
16:00 7.0 5.6 -1.5 N 7.4 -- 11.1 55 1020.2(-0.4/3h) >70 -- -- --
15:00 8.0 7.3 -1.5 NNE 5.6 -- 14.8 51 1019.8(-0.6/3h) >70 -- -- --
14:00 7.4 6.1 -1.4 N 7.4 -- 14.8 54 1020.1(-0.5/3h) >70 -- -- --
13:00 7.3 6.5 -1.7 NNE 5.6 -- 11.1 53 1020.6(-0.5/3h) >70 -- -- --
12:00 6.9 5.5 -1.1 N 7.4 -- 14.8 57 1020.8(-0.4/3h) >70 -- -- NA
11:00 7.5 7.5 -0.1 NNE 3.7 -- 14.8 58 1020.7(-0.3/3h) >70 -- -- --
10:00 7.2 5.9 1.4 N 7.4 -- 14.8 67 1021.1(0.0/3h) 16 -- -- --
09:00 5.6 4 -0.5 NNE 7.4 -- 13.0 65 1021.7(0.2/3h) >70 -- -- --
08:00 5.3 4.2 1.2 NNE 5.6 -- 11.1 75 1021.7(0.4/3h) 14 -- -- --
07:00 3.4 2 1.7 NE 5.6 -- 11.1 89 1022.2(0.3/3h) 19 -- -- --
06:00 2.5 2.5 2.0 NNO 1.9 -- 5.6 96 1022.1(-0.1/3h) 11 -- -- NA
05:00 2.0 2.0 1.8 NE 3.7 -- 5.6 99 1022(-0.4/3h) 6 -- -- --
04:00 2.0 2.0 2.0 NNO 1.9 -- 5.6 100 1022.1(-0.5/3h) 4.4 -- -- --
03:00 1.4 1.4 1.4 NNO 1.9 -- 3.7 100 1022.5(-0.6/3h) 8 -- -- NA
02:00 1.7 1.7 1.6 NNO 1.9 -- 3.7 99 1022.6(-0.5/3h) 14 -- -- --
01:00 0.8 0.8 0.8 NNO 1.9 -- 1.9 100 1023(-0.4/3h) 35 -- -- Du brouillard ou du brouillard glacé (plus correctement designé sous le nom de brume) est observé et la visibilité n'est ni inférieure à 5/8 de mille ni supérieure à 6 milles
00:00 1.5 1.5 1.2 NNO 1.9 -- 9.3 98 1023.1(-0.3/3h) 19 -- -- --

1 Coordinated Universal Time. Actuellement il est 01:00 locale et 23:00 UTC.

2 Le vent souffle depuis la direction indiquée vers la direction oposée.

3 Les rafales max. sont disponible 40 min après l'heure du relevé.

4 Pour les stations d'altitude (plus de 600m) le géopotentiel du niveau le plus proche de la pression obligatoire est indiqué.

5 Les stations disposant d'un diffuseur peuvent indiquer "trace". Cela signifie que des précipitations ont touchés le sol mais que la quantité est inférieure à 0.1 mm.

Récapitulatif de la journée
Température [°C] Vent [km/h] Ensoleillement4 [h] Precipitations totale5 [mm] Pression [Hpa]
Min1 Max.2 Moy.3 Max. Min Max.
0.6 9.3 0 14.8 0 h 0 min 0 1019.8 1023.3

1 Température minimale relevée entre 18:00 UTC la veille et 18:00 UTC le jour donné.

2 Température maximale relevée entre 06:00 UTC le jour donné et 06:00 UTC le lendemain.

3 Vent moyen de la journée basé sur les relevés horaires.

4 Ensoleillement en heures relevé entre 06:00 UTC la veille et 06:00 UTC le jour donné.

5 Précipitations totales tombées entre 06:00 UTC la jour donné et 06:00 UTC le lendemain.

Graphiques horaires